Time;durP1;ratioP1;P1;durP2;ratioP2;P2;SDS_P1;SDS_P2;PMS_P1;PMS_P2;Temp;Humidity;BMP_temperature;BMP_pressure;BME280_temperature;BME280_humidity;BME280_pressure;Samples;Min_cycle;Max_cycle;Signal;HPM_P1;HPM_P2
2022/05/30 00:00:29;;;;;;;3.43;1.70;;;12.10;93.60;;;;;;5032009;28;20279;-34
2022/05/30 00:02:57;;;;;;;5.87;1.83;;;12.10;93.80;;;;;;5043502;28;20213;-34
2022/05/30 00:05:30;;;;;;;7.07;1.70;;;12.10;93.70;;;;;;5044596;28;20317;-34
2022/05/30 00:07:58;;;;;;;2.30;1.70;;;12.10;93.80;;;;;;5042030;28;20212;-34
2022/05/30 00:10:25;;;;;;;3.63;1.57;;;12.10;93.90;;;;;;5031568;28;20240;-34
2022/05/30 00:12:54;;;;;;;5.27;2.10;;;12.10;94.00;;;;;;5033649;28;20641;-34
2022/05/30 00:15:22;;;;;;;4.97;1.80;;;12.10;93.90;;;;;;5039817;28;20225;-34
2022/05/30 00:17:54;;;;;;;2.80;1.60;;;12.10;93.90;;;;;;5037598;28;20573;-34
2022/05/30 00:20:21;;;;;;;4.23;1.70;;;12.10;94.00;;;;;;5047929;28;20192;-34
2022/05/30 00:22:51;;;;;;;3.97;1.47;;;12.10;94.00;;;;;;5048319;28;20204;-34
2022/05/30 00:25:23;;;;;;;5.93;2.10;;;12.10;94.00;;;;;;5039310;28;20705;-34
2022/05/30 00:27:53;;;;;;;7.83;1.80;;;12.10;93.90;;;;;;5046519;28;20220;-33
2022/05/30 00:30:23;;;;;;;4.30;1.80;;;12.10;94.00;;;;;;5030448;28;20201;-34
2022/05/30 00:32:50;;;;;;;2.90;1.37;;;12.10;94.00;;;;;;5028792;28;20291;-34
2022/05/30 00:35:17;;;;;;;3.13;1.60;;;12.10;93.80;;;;;;5028895;28;20260;-34
2022/05/30 00:37:44;;;;;;;4.03;1.60;;;12.10;94.00;;;;;;5033294;28;20530;-34
2022/05/30 00:40:12;;;;;;;4.43;1.67;;;12.10;94.00;;;;;;5066972;28;20633;-34
2022/05/30 00:42:39;;;;;;;3.73;1.80;;;12.10;94.10;;;;;;5047719;28;20200;-34
2022/05/30 00:45:09;;;;;;;4.27;1.90;;;12.10;94.20;;;;;;5034116;28;20205;-34
2022/05/30 00:47:38;;;;;;;2.97;1.73;;;12.10;94.10;;;;;;5027824;28;20197;-35
2022/05/30 00:50:08;;;;;;;6.50;2.27;;;12.10;94.10;;;;;;5039944;28;20301;-34
2022/05/30 00:52:43;;;;;;;2.97;1.77;;;12.10;94.20;;;;;;5030717;28;20212;-34
2022/05/30 00:55:16;;;;;;;3.93;2.10;;;12.10;94.30;;;;;;5052171;28;20682;-35
2022/05/30 00:57:46;;;;;;;3.07;1.80;;;12.10;94.30;;;;;;5028055;28;20279;-34
2022/05/30 01:00:25;;;;;;;3.47;2.00;;;12.00;94.20;;;;;;5036756;28;20255;-34
2022/05/30 01:08:31;;;;;;;4.13;2.40;;;12.00;94.30;;;;;;5045899;28;20278;-34
2022/05/30 01:10:58;;;;;;;7.23;2.20;;;11.90;94.30;;;;;;5060768;28;20220;-34
2022/05/30 01:13:28;;;;;;;5.63;2.33;;;12.00;94.40;;;;;;5053388;28;20216;-34
2022/05/30 01:15:56;;;;;;;5.63;2.07;;;11.90;94.30;;;;;;5035616;28;20224;-35
2022/05/30 01:18:33;;;;;;;5.60;1.97;;;11.90;94.40;;;;;;5048604;28;20216;-34
2022/05/30 01:21:31;;;;;;;4.37;1.90;;;11.90;94.50;;;;;;5054385;28;20207;-34
2022/05/30 01:24:14;;;;;;;4.23;2.67;;;11.90;94.80;;;;;;5046269;28;20589;-34
2022/05/30 01:26:55;;;;;;;3.53;2.47;;;11.80;94.40;;;;;;5050338;28;20212;-35
2022/05/30 01:29:39;;;;;;;4.40;2.23;;;11.80;94.50;;;;;;5059765;28;20227;-34
2022/05/30 01:32:11;;;;;;;3.67;2.07;;;11.80;94.60;;;;;;5043510;28;20262;-34
2022/05/30 01:34:38;;;;;;;5.57;2.53;;;11.70;94.40;;;;;;5029496;28;20239;-34
2022/05/30 01:37:05;;;;;;;3.70;2.17;;;11.70;94.50;;;;;;5044960;28;20769;-34
2022/05/30 01:39:33;;;;;;;5.10;2.00;;;11.70;94.50;;;;;;5063921;28;20234;-34
2022/05/30 01:42:02;;;;;;;5.50;2.53;;;11.70;94.50;;;;;;5046925;28;20646;-34
2022/05/30 01:44:31;;;;;;;5.67;2.40;;;11.60;94.50;;;;;;5041088;28;20255;-34
2022/05/30 01:47:01;;;;;;;4.37;2.30;;;11.60;94.50;;;;;;5048178;28;20562;-34
2022/05/30 01:49:28;;;;;;;5.87;2.50;;;11.60;94.60;;;;;;5027510;28;20623;-34
2022/05/30 01:51:57;;;;;;;5.50;2.80;;;11.60;94.60;;;;;;5046206;28;20236;-35
2022/05/30 01:54:24;;;;;;;4.53;2.13;;;11.50;94.60;;;;;;5035528;28;20676;-34
2022/05/30 01:56:53;;;;;;;3.10;1.90;;;11.50;94.60;;;;;;5030130;28;20221;-34
2022/05/30 01:59:23;;;;;;;3.57;2.10;;;11.50;94.60;;;;;;5048214;28;20228;-34
2022/05/30 02:01:55;;;;;;;3.90;2.00;;;11.40;94.40;;;;;;5046754;28;20212;-34
2022/05/30 02:04:23;;;;;;;3.73;2.60;;;11.40;94.50;;;;;;5030227;28;20264;-34
2022/05/30 02:06:53;;;;;;;3.40;2.57;;;11.40;94.50;;;;;;5030373;28;20205;-34
2022/05/30 02:09:25;;;;;;;3.93;2.40;;;11.30;94.40;;;;;;5039013;28;20201;-34
2022/05/30 02:11:52;;;;;;;5.27;2.90;;;11.30;94.50;;;;;;5038355;28;20733;-34
2022/05/30 02:14:20;;;;;;;7.67;2.77;;;11.30;94.50;;;;;;5032768;28;20200;-34
2022/05/30 02:17:04;;;;;;;4.57;2.20;;;11.30;94.40;;;;;;5046671;28;20698;-34
2022/05/30 02:19:37;;;;;;;3.37;2.67;;;11.30;94.40;;;;;;5045532;28;20216;-34
2022/05/30 02:22:06;;;;;;;6.67;2.30;;;11.30;94.50;;;;;;5045811;28;20200;-34
2022/05/30 02:24:38;;;;;;;4.87;2.53;;;11.30;94.50;;;;;;5029690;28;20240;-34
2022/05/30 02:27:10;;;;;;;4.20;2.57;;;11.30;94.50;;;;;;5044306;28;20198;-35
2022/05/30 02:29:38;;;;;;;3.80;2.30;;;11.30;94.50;;;;;;5043159;28;20223;-34
2022/05/30 02:32:06;;;;;;;6.50;2.70;;;11.30;94.50;;;;;;5034152;28;20209;-34
2022/05/30 02:37:24;;;;;;;4.47;2.93;;;11.20;94.50;;;;;;5048611;28;20231;-34
2022/05/30 02:39:54;;;;;;;5.37;2.73;;;11.10;94.50;;;;;;5067408;28;20248;-34
2022/05/30 02:42:26;;;;;;;5.90;2.60;;;11.10;94.50;;;;;;5071009;28;20612;-34
2022/05/30 02:44:56;;;;;;;6.27;3.43;;;11.10;94.60;;;;;;5032794;28;20200;-34
2022/05/30 02:47:26;;;;;;;8.00;3.17;;;11.10;94.50;;;;;;5049972;28;20737;-34
2022/05/30 02:49:53;;;;;;;3.60;2.33;;;11.00;94.60;;;;;;5032000;28;20720;-34
2022/05/30 02:52:20;;;;;;;3.60;2.80;;;11.00;94.60;;;;;;5048192;28;20286;-34
2022/05/30 02:54:50;;;;;;;5.90;3.40;;;11.00;94.60;;;;;;5044268;28;20269;-34
2022/05/30 02:57:20;;;;;;;6.87;3.40;;;11.00;94.60;;;;;;5035287;28;20313;-34
2022/05/30 02:59:47;;;;;;;6.50;3.97;;;11.00;94.50;;;;;;5049466;28;20215;-34
2022/05/30 03:02:14;;;;;;;6.60;4.27;;;11.00;94.60;;;;;;5046427;28;20235;-34
2022/05/30 03:04:41;;;;;;;7.03;4.13;;;10.90;94.50;;;;;;5046969;28;20235;-34
2022/05/30 03:07:09;;;;;;;5.23;3.90;;;10.90;94.40;;;;;;5049128;28;20232;-34
2022/05/30 03:09:36;;;;;;;8.77;4.40;;;10.90;94.50;;;;;;5038377;28;20219;-34
2022/05/30 03:12:04;;;;;;;7.40;4.57;;;10.90;94.50;;;;;;5030590;28;20205;-34
2022/05/30 03:14:31;;;;;;;8.63;5.47;;;10.80;94.50;;;;;;5029471;28;20208;-35
2022/05/30 03:16:58;;;;;;;8.07;5.90;;;10.80;94.50;;;;;;5048036;28;20293;-34
2022/05/30 03:19:25;;;;;;;8.93;6.10;;;10.80;94.50;;;;;;5040401;28;20243;-34
2022/05/30 03:21:53;;;;;;;8.07;5.80;;;10.80;94.60;;;;;;5042899;28;20330;-35
2022/05/30 03:24:22;;;;;;;7.20;5.90;;;10.80;94.60;;;;;;5035719;28;20193;-40
2022/05/30 03:26:49;;;;;;;9.40;5.73;;;10.70;94.50;;;;;;5049388;28;20219;-40
2022/05/30 03:29:16;;;;;;;9.80;6.27;;;10.70;94.50;;;;;;5040556;28;20204;-40
2022/05/30 03:31:44;;;;;;;6.53;5.53;;;10.70;94.60;;;;;;5043787;28;20211;-40
2022/05/30 03:34:11;;;;;;;8.53;6.27;;;10.70;94.70;;;;;;5049167;28;20204;-40
2022/05/30 03:36:38;;;;;;;7.77;6.50;;;10.60;94.60;;;;;;5042562;28;20268;-40
2022/05/30 03:39:07;;;;;;;11.47;6.80;;;10.60;94.50;;;;;;5053360;28;20340;-40
2022/05/30 03:41:35;;;;;;;9.77;5.93;;;10.60;94.60;;;;;;5029406;28;20197;-40
2022/05/30 03:44:02;;;;;;;9.77;6.17;;;10.60;94.70;;;;;;5043320;28;20299;-40
2022/05/30 03:46:31;;;;;;;8.07;6.03;;;10.60;94.70;;;;;;5034540;28;20263;-40
2022/05/30 03:49:01;;;;;;;8.97;6.07;;;10.60;94.70;;;;;;5047060;28;20216;-40
2022/05/30 03:51:28;;;;;;;11.03;7.00;;;10.60;94.80;;;;;;5036160;28;20205;-40
2022/05/30 03:54:00;;;;;;;9.97;7.20;;;10.50;94.80;;;;;;5038006;28;20662;-40
2022/05/30 03:56:30;;;;;;;8.47;5.87;;;10.60;94.80;;;;;;5034210;28;20243;-40
2022/05/30 03:58:57;;;;;;;8.17;6.50;;;10.50;94.80;;;;;;5033897;28;20758;-40
2022/05/30 04:01:27;;;;;;;9.03;6.80;;;10.50;94.80;;;;;;5036654;28;20241;-40
2022/05/30 04:03:56;;;;;;;8.33;6.27;;;10.50;94.80;;;;;;5047872;28;20294;-40
2022/05/30 04:06:28;;;;;;;8.70;6.43;;;10.50;94.90;;;;;;5048328;28;20219;-40
2022/05/30 04:08:58;;;;;;;8.53;6.47;;;10.50;94.80;;;;;;5043213;28;20205;-41
2022/05/30 04:11:28;;;;;;;8.27;6.17;;;10.50;94.90;;;;;;5029320;28;20207;-40
2022/05/30 04:13:55;;;;;;;11.40;6.10;;;10.50;94.90;;;;;;5036903;28;20525;-39
2022/05/30 04:16:25;;;;;;;8.00;6.23;;;10.50;94.90;;;;;;5048906;28;20228;-40
2022/05/30 04:18:52;;;;;;;10.50;6.50;;;10.50;94.90;;;;;;5047789;28;20208;-40
2022/05/30 04:21:20;;;;;;;8.80;6.47;;;10.50;95.00;;;;;;5047765;28;20618;-40
2022/05/30 04:23:47;;;;;;;9.90;6.07;;;10.50;95.00;;;;;;5033899;28;20348;-40
2022/05/30 04:26:17;;;;;;;8.50;6.30;;;10.50;95.00;;;;;;5043959;28;20213;-40
2022/05/30 04:28:45;;;;;;;8.00;6.13;;;10.60;95.00;;;;;;5032240;28;20209;-40
2022/05/30 04:31:14;;;;;;;7.80;6.10;;;10.60;95.10;;;;;;5038603;28;20305;-40
2022/05/30 04:33:44;;;;;;;7.67;5.83;;;10.60;95.20;;;;;;5061202;28;20323;-40
2022/05/30 04:36:13;;;;;;;9.87;6.20;;;10.60;95.20;;;;;;5044894;28;20216;-40
2022/05/30 04:38:43;;;;;;;9.57;6.37;;;10.60;95.20;;;;;;5068139;28;20256;-40
2022/05/30 04:41:11;;;;;;;7.43;5.90;;;10.60;95.20;;;;;;5062895;28;20211;-40
2022/05/30 04:43:38;;;;;;;7.43;5.30;;;10.60;95.20;;;;;;5056727;28;20211;-40
2022/05/30 04:46:16;;;;;;;8.20;5.47;;;10.60;95.20;;;;;;5028527;28;20197;-40
2022/05/30 04:48:44;;;;;;;8.87;5.50;;;10.70;95.30;;;;;;5043064;28;20207;-41
2022/05/30 04:51:12;;;;;;;8.57;5.93;;;10.70;95.30;;;;;;5061699;28;20272;-41
2022/05/30 04:53:40;;;;;;;8.37;5.90;;;10.70;95.30;;;;;;5038013;28;20239;-40
2022/05/30 04:56:08;;;;;;;8.47;5.20;;;10.70;95.30;;;;;;5028128;28;20252;-40
2022/05/30 04:58:38;;;;;;;8.20;5.20;;;10.80;95.40;;;;;;5033290;28;20204;-40
2022/05/30 05:01:11;;;;;;;9.90;5.23;;;10.80;95.30;;;;;;5036711;28;20208;-40
2022/05/30 05:03:40;;;;;;;7.83;5.43;;;10.90;95.50;;;;;;5035178;28;20675;-39
2022/05/30 05:06:14;;;;;;;10.80;5.70;;;10.90;95.50;;;;;;5066024;28;20219;-39
2022/05/30 05:08:53;;;;;;;6.60;5.17;;;10.90;95.50;;;;;;5047021;28;20291;-40
2022/05/30 05:11:32;;;;;;;6.73;4.67;;;11.00;95.60;;;;;;5060795;28;20815;-39
2022/05/30 05:14:01;;;;;;;7.20;5.07;;;11.00;95.60;;;;;;5056229;28;20204;-34
2022/05/30 05:16:31;;;;;;;8.50;4.73;;;11.10;95.60;;;;;;5034377;28;20541;-34
2022/05/30 05:19:00;;;;;;;7.07;4.77;;;11.10;95.60;;;;;;5046824;28;20299;-34
2022/05/30 05:21:31;;;;;;;9.30;5.20;;;11.20;95.60;;;;;;5038443;28;20543;-34
2022/05/30 05:24:02;;;;;;;6.83;4.57;;;11.20;95.70;;;;;;5065159;28;20206;-34
2022/05/30 05:26:29;;;;;;;9.03;4.90;;;11.30;95.80;;;;;;5066197;28;20242;-34
2022/05/30 05:28:57;;;;;;;7.23;4.70;;;11.30;95.80;;;;;;5057346;28;20200;-35
2022/05/30 05:31:34;;;;;;;7.60;4.30;;;11.40;95.80;;;;;;5045527;28;20301;-34
2022/05/30 05:34:07;;;;;;;5.37;4.50;;;11.40;95.90;;;;;;5037909;28;20204;-34
2022/05/30 05:36:38;;;;;;;7.03;4.57;;;11.50;95.90;;;;;;5037065;28;20208;-34
2022/05/30 05:39:08;;;;;;;6.77;4.47;;;11.50;95.90;;;;;;5055575;28;20246;-34
2022/05/30 05:41:36;;;;;;;10.33;4.27;;;11.50;96.00;;;;;;5042696;28;20204;-36
2022/05/30 05:44:04;;;;;;;10.90;3.80;;;11.60;96.00;;;;;;5035000;28;20607;-35
2022/05/30 05:46:31;;;;;;;7.67;4.00;;;11.60;96.00;;;;;;5035142;28;20258;-35
2022/05/30 05:49:01;;;;;;;8.80;3.93;;;11.70;96.20;;;;;;5027858;28;20205;-35
2022/05/30 05:51:29;;;;;;;9.33;4.10;;;11.70;96.10;;;;;;5027726;28;20287;-35
2022/05/30 05:53:56;;;;;;;6.07;3.87;;;11.80;96.10;;;;;;5049630;28;20242;-35
2022/05/30 05:56:29;;;;;;;8.23;3.87;;;11.80;96.20;;;;;;5030468;28;20219;-35
2022/05/30 05:58:57;;;;;;;7.13;3.87;;;11.90;96.30;;;;;;5035688;28;20211;-34
2022/05/30 06:01:29;;;;;;;6.73;3.73;;;11.90;96.30;;;;;;5058214;28;20250;-34
2022/05/30 06:04:03;;;;;;;7.73;3.80;;;12.00;96.30;;;;;;5046731;28;20233;-34
2022/05/30 06:06:33;;;;;;;11.13;3.40;;;12.00;96.30;;;;;;5027605;28;20326;-33
2022/05/30 06:09:05;;;;;;;10.87;4.07;;;12.10;96.40;;;;;;5037686;28;20218;-33
2022/05/30 06:11:33;;;;;;;9.20;3.70;;;12.20;96.50;;;;;;5027872;28;20205;-34
2022/05/30 06:14:04;;;;;;;6.43;3.73;;;12.30;96.50;;;;;;5037588;28;20684;-34
2022/05/30 06:16:36;;;;;;;7.03;3.60;;;12.40;96.70;;;;;;5070885;28;20273;-34
2022/05/30 06:19:04;;;;;;;8.37;3.30;;;12.50;97.00;;;;;;5061320;28;20648;-34
2022/05/30 06:21:33;;;;;;;8.00;3.60;;;12.60;96.90;;;;;;5064106;28;20716;-33
2022/05/30 06:24:05;;;;;;;7.83;3.10;;;12.60;96.80;;;;;;5053436;28;20302;-33
2022/05/30 06:26:33;;;;;;;6.23;3.23;;;12.70;96.80;;;;;;5050105;28;20301;-34
2022/05/30 06:29:01;;;;;;;6.97;3.10;;;12.80;96.90;;;;;;5061195;28;20263;-34
2022/05/30 06:31:32;;;;;;;8.27;3.28;;;12.90;97.00;;;;;;5051082;28;20299;-34
2022/05/30 06:34:03;;;;;;;7.47;3.17;;;13.00;97.10;;;;;;5053093;28;20330;-34
2022/05/30 06:36:31;;;;;;;8.97;3.63;;;13.10;97.10;;;;;;5043187;28;20220;-33
2022/05/30 06:39:01;;;;;;;10.90;3.83;;;13.20;97.10;;;;;;5039758;28;20579;-34
2022/05/30 06:41:31;;;;;;;9.57;3.70;;;13.30;97.20;;;;;;5038665;28;20591;-34
2022/05/30 06:44:04;;;;;;;9.88;3.40;;;13.40;97.20;;;;;;5051928;28;20234;-34
2022/05/30 06:46:34;;;;;;;6.95;2.70;;;13.50;97.30;;;;;;5051158;28;20242;-33
2022/05/30 06:49:04;;;;;;;6.70;2.80;;;13.60;97.30;;;;;;5045335;28;20205;-34
2022/05/30 06:51:35;;;;;;;8.73;3.40;;;13.70;97.40;;;;;;5047488;28;20211;-34
2022/05/30 06:54:09;;;;;;;6.83;3.47;;;13.80;97.50;;;;;;5063210;28;20318;-34
2022/05/30 06:58:12;;;;;;;11.17;3.27;;;13.80;97.50;;;;;;5045699;28;20200;-34
2022/05/30 06:59:32;;;;;;;5.35;2.40;;;13.90;97.60;;;;;;5053081;28;20642;-34
2022/05/30 07:02:01;;;;;;;7.45;3.20;;;14.00;97.60;;;;;;5041807;28;20210;-34
2022/05/30 07:04:33;;;;;;;12.90;2.88;;;14.10;97.60;;;;;;5042992;28;20324;-34
2022/05/30 07:07:07;;;;;;;7.70;2.60;;;14.20;97.60;;;;;;5044302;28;20209;-34
2022/05/30 07:09:35;;;;;;;6.30;2.30;;;14.30;97.60;;;;;;5066911;28;20230;-34
2022/05/30 07:12:02;;;;;;;4.13;2.10;;;14.30;97.60;;;;;;5052006;28;21093;-34
2022/05/30 07:14:29;;;;;;;7.40;2.60;;;14.40;97.70;;;;;;5049708;28;20203;-34
2022/05/30 07:16:56;;;;;;;6.75;2.42;;;14.50;97.70;;;;;;5049365;28;20232;-35
2022/05/30 07:19:26;;;;;;;7.33;2.43;;;14.50;97.70;;;;;;5068361;28;20577;-34
2022/05/30 07:21:53;;;;;;;7.67;2.40;;;14.60;97.80;;;;;;5055538;28;20678;-34
2022/05/30 07:24:21;;;;;;;8.80;2.05;;;14.70;97.80;;;;;;5062404;28;20203;-34
2022/05/30 07:26:48;;;;;;;7.82;2.50;;;14.80;97.80;;;;;;5059990;28;20208;-34
2022/05/30 07:29:16;;;;;;;8.30;2.17;;;14.90;97.90;;;;;;5058120;28;20441;-34
2022/05/30 07:31:43;;;;;;;5.95;2.22;;;15.10;97.90;;;;;;5030375;28;20250;-34
2022/05/30 07:34:10;;;;;;;4.60;1.63;;;15.20;97.80;;;;;;5049104;28;20271;-34
2022/05/30 07:36:37;;;;;;;6.80;2.20;;;15.20;97.70;;;;;;5057960;28;20311;-34
2022/05/30 07:39:05;;;;;;;5.57;1.80;;;15.20;97.50;;;;;;5047089;28;20287;-34
2022/05/30 07:41:37;;;;;;;5.67;1.60;;;15.20;97.40;;;;;;5054214;28;20265;-35
2022/05/30 07:44:05;;;;;;;5.22;1.50;;;15.10;97.30;;;;;;5069095;28;20208;-34
2022/05/30 07:46:32;;;;;;;6.88;1.90;;;15.00;97.10;;;;;;5056884;28;20407;-35
2022/05/30 07:49:00;;;;;;;5.60;1.38;;;15.20;96.80;;;;;;5049051;28;20204;-34
2022/05/30 07:51:27;;;;;;;5.03;1.70;;;15.10;96.60;;;;;;5035132;28;20227;-34
2022/05/30 07:53:54;;;;;;;5.05;1.23;;;14.90;96.60;;;;;;5034959;28;20213;-34
2022/05/30 07:56:21;;;;;;;3.78;1.35;;;14.90;96.60;;;;;;5043068;28;20666;-34
2022/05/30 07:58:49;;;;;;;5.37;1.40;;;14.80;96.40;;;;;;5041186;28;20314;-34
2022/05/30 08:01:19;;;;;;;6.75;1.30;;;14.80;96.40;;;;;;5064962;28;20203;-34
2022/05/30 08:03:48;;;;;;;4.40;1.50;;;14.70;96.40;;;;;;5064835;28;20242;-33
2022/05/30 08:06:22;;;;;;;3.90;1.17;;;14.60;96.40;;;;;;5066913;28;20196;-34
2022/05/30 08:08:51;;;;;;;4.33;1.27;;;14.60;96.40;;;;;;5041256;28;20206;-34
2022/05/30 08:11:21;;;;;;;6.60;1.50;;;14.60;96.50;;;;;;5054464;28;20224;-34
2022/05/30 08:13:51;;;;;;;3.60;1.40;;;14.60;96.50;;;;;;5041353;28;20209;-34
2022/05/30 08:16:21;;;;;;;3.77;1.40;;;14.60;96.50;;;;;;5047500;28;20230;-34
2022/05/30 08:19:09;;;;;;;6.30;2.10;;;14.60;96.40;;;;;;5054151;28;20200;-34
2022/05/30 08:22:07;;;;;;;5.47;1.30;;;14.60;96.50;;;;;;5069197;28;20200;-33
2022/05/30 08:24:40;;;;;;;4.53;1.50;;;14.60;96.50;;;;;;5060592;28;20223;-34
2022/05/30 08:27:07;;;;;;;3.87;1.40;;;14.70;96.50;;;;;;5029861;28;20213;-33
2022/05/30 08:29:35;;;;;;;4.07;1.10;;;14.70;96.50;;;;;;5031248;28;20205;-34
2022/05/30 08:32:05;;;;;;;3.70;1.40;;;14.70;96.50;;;;;;5029355;28;20209;-34
2022/05/30 08:34:39;;;;;;;3.93;1.40;;;14.70;96.50;;;;;;5048192;28;20204;-34
2022/05/30 08:37:08;;;;;;;4.23;1.10;;;14.70;96.50;;;;;;5062455;28;20247;-34
2022/05/30 08:42:29;;;;;;;3.03;1.17;;;14.80;96.50;;;;;;5038897;28;20211;-34
2022/05/30 08:44:59;;;;;;;2.43;1.20;;;14.80;96.40;;;;;;5043557;28;20201;-33
2022/05/30 08:47:41;;;;;;;2.77;1.23;;;14.90;96.50;;;;;;5060765;28;20247;-34
2022/05/30 08:50:34;;;;;;;4.27;1.37;;;14.90;96.70;;;;;;5054415;28;20196;-34
2022/05/30 08:53:17;;;;;;;4.40;1.67;;;15.00;96.70;;;;;;5037136;28;20720;-34
2022/05/30 08:55:55;;;;;;;5.60;1.63;;;15.10;96.80;;;;;;5047653;28;20236;-34
2022/05/30 08:58:33;;;;;;;3.85;1.30;;;15.20;96.80;;;;;;5044914;28;20228;-34
2022/05/30 09:01:09;;;;;;;4.57;1.30;;;15.30;96.90;;;;;;5044457;28;20192;-34
2022/05/30 09:04:09;;;;;;;3.00;1.23;;;15.40;96.90;;;;;;5038942;28;20221;-40
2022/05/30 09:06:53;;;;;;;3.17;1.20;;;15.50;97.00;;;;;;5031032;28;20706;-40
2022/05/30 09:09:31;;;;;;;2.42;1.10;;;15.60;97.00;;;;;;5042859;28;20621;-40
2022/05/30 09:12:00;;;;;;;3.88;1.40;;;15.60;96.90;;;;;;5036359;28;20199;-40
2022/05/30 09:14:43;;;;;;;2.40;1.15;;;15.70;96.90;;;;;;5066358;28;20207;-40
2022/05/30 09:17:17;;;;;;;6.17;1.37;;;15.70;96.80;;;;;;5050180;28;20226;-40
2022/05/30 09:19:45;;;;;;;3.05;1.30;;;15.70;96.70;;;;;;5049293;28;20210;-40
2022/05/30 09:22:16;;;;;;;3.08;1.00;;;15.70;96.70;;;;;;5045469;28;20801;-40
2022/05/30 09:25:55;;;;;;;6.03;1.17;;;15.80;96.90;;;;;;5037516;28;20257;-40
2022/05/30 09:27:33;;;;;;;2.42;0.95;;;15.80;96.80;;;;;;5039565;28;20690;-41
2022/05/30 09:30:01;;;;;;;4.35;1.33;;;15.90;96.90;;;;;;5040567;28;20801;-41
2022/05/30 09:32:45;;;;;;;7.00;1.52;;;16.00;96.70;;;;;;5044490;28;20633;-41
2022/05/30 09:35:29;;;;;;;2.67;1.10;;;16.00;96.60;;;;;;5044902;28;20220;-41
2022/05/30 09:38:17;;;;;;;5.30;1.13;;;16.00;96.80;;;;;;5044309;28;20733;-41
2022/05/30 09:40:56;;;;;;;3.80;1.42;;;16.10;96.50;;;;;;5043056;28;20731;-41
2022/05/30 09:43:45;;;;;;;2.08;0.80;;;16.10;96.60;;;;;;5067439;28;20222;-41
2022/05/30 09:46:42;;;;;;;1.95;1.20;;;16.20;96.80;;;;;;5058239;28;20293;-41
2022/05/30 09:49:14;;;;;;;3.33;1.20;;;16.30;96.40;;;;;;5028333;28;20223;-41
2022/05/30 09:51:44;;;;;;;3.33;0.95;;;16.30;96.80;;;;;;5041166;28;20243;-41
2022/05/30 09:54:25;;;;;;;3.92;1.38;;;16.40;97.00;;;;;;5052929;28;20218;-41
2022/05/30 09:57:05;;;;;;;3.80;1.40;;;16.50;97.00;;;;;;5047973;28;20212;-41
2022/05/30 09:59:43;;;;;;;6.72;1.73;;;16.60;96.90;;;;;;5065473;28;20333;-41
2022/05/30 10:02:31;;;;;;;2.75;1.17;;;16.60;97.10;;;;;;5061870;28;20205;-40
2022/05/30 10:05:21;;;;;;;2.00;0.90;;;16.70;97.10;;;;;;5060580;28;20719;-41
2022/05/30 10:08:19;;;;;;;3.80;1.52;;;16.80;96.90;;;;;;5040659;28;20208;-41
2022/05/30 10:10:51;;;;;;;4.10;1.45;;;16.80;96.60;;;;;;5037578;28;20220;-41
2022/05/30 10:13:40;;;;;;;4.70;1.15;;;16.80;95.90;;;;;;5041305;28;20227;-42
2022/05/30 10:16:14;;;;;;;3.90;1.00;;;16.80;96.30;;;;;;5028743;28;20240;-41
2022/05/30 10:18:55;;;;;;;2.85;1.10;;;16.70;96.20;;;;;;5061420;28;20230;-41
2022/05/30 10:28:21;;;;;;;7.40;1.65;;;16.70;96.30;;;;;;5056854;28;20636;-41
2022/05/30 10:31:07;;;;;;;1.95;1.00;;;16.80;95.30;;;;;;5042112;28;20342;-41
2022/05/30 10:33:49;;;;;;;1.60;1.02;;;16.80;95.90;;;;;;5053900;28;20291;-42
2022/05/30 10:37:04;;;;;;;3.47;1.30;;;16.80;95.90;;;;;;5029432;28;20200;-41
2022/05/30 10:40:06;;;;;;;3.42;1.45;;;16.90;96.10;;;;;;5046641;28;20478;-42
2022/05/30 10:42:56;;;;;;;4.00;1.60;;;16.90;96.30;;;;;;5040521;28;20337;-42
2022/05/30 10:45:39;;;;;;;2.17;1.27;;;17.00;96.50;;;;;;5059672;28;20586;-42
2022/05/30 10:48:09;;;;;;;1.80;1.10;;;17.10;96.60;;;;;;5035393;28;20225;-42
2022/05/30 10:50:59;;;;;;;3.13;1.10;;;17.20;96.80;;;;;;5038176;28;20219;-42
2022/05/30 10:53:53;;;;;;;2.03;1.40;;;17.40;97.00;;;;;;5050264;28;20602;-42
2022/05/30 10:56:40;;;;;;;4.30;1.30;;;17.50;96.90;;;;;;5064964;28;20211;-42
2022/05/30 10:59:22;;;;;;;2.03;1.10;;;17.50;96.70;;;;;;5042124;28;20220;-42
2022/05/30 11:01:58;;;;;;;4.35;1.40;;;17.50;96.40;;;;;;5040506;28;20193;-43
2022/05/30 11:04:51;;;;;;;2.65;1.30;;;17.60;96.50;;;;;;5062818;28;20789;-42
2022/05/30 11:07:36;;;;;;;3.92;1.45;;;17.60;96.40;;;;;;5056325;28;20221;-42
2022/05/30 11:10:25;;;;;;;3.13;1.58;;;17.70;96.60;;;;;;5047895;28;20200;-42
2022/05/30 11:13:17;;;;;;;2.97;1.38;;;17.70;96.40;;;;;;5056779;28;20666;-42
2022/05/30 11:15:49;;;;;;;2.53;1.00;;;17.70;96.30;;;;;;5041329;28;20239;-43
2022/05/30 11:18:37;;;;;;;3.47;1.30;;;17.80;96.30;;;;;;5051992;28;21015;-43
2022/05/30 11:21:17;;;;;;;3.85;1.27;;;17.80;95.90;;;;;;5037232;28;20209;-43
2022/05/30 11:23:45;;;;;;;2.85;1.20;;;17.80;95.90;;;;;;5044896;28;20269;-43
2022/05/30 11:26:15;;;;;;;2.67;1.17;;;17.70;96.20;;;;;;5062414;28;20238;-43
2022/05/30 11:29:14;;;;;;;2.47;1.13;;;17.80;96.30;;;;;;5046832;28;20278;-43
2022/05/30 11:32:10;;;;;;;1.60;1.10;;;17.90;96.50;;;;;;5037170;28;20215;-44
2022/05/30 11:34:58;;;;;;;4.00;1.30;;;18.00;96.50;;;;;;5042735;28;20797;-42
2022/05/30 11:37:25;;;;;;;3.10;1.35;;;18.10;96.20;;;;;;5038891;28;20214;-42
2022/05/30 11:40:12;;;;;;;4.00;1.85;;;18.20;96.40;;;;;;5042678;28;20220;-42
2022/05/30 11:42:50;;;;;;;3.10;1.90;;;18.30;96.60;;;;;;5037101;28;20209;-42
2022/05/30 11:45:28;;;;;;;4.53;1.50;;;18.30;96.40;;;;;;5056957;28;20680;-42
2022/05/30 11:48:05;;;;;;;2.70;1.35;;;18.40;96.50;;;;;;5054914;28;20213;-42
2022/05/30 11:50:41;;;;;;;3.00;1.00;;;18.40;96.60;;;;;;5049207;28;20199;-42
2022/05/30 11:53:33;;;;;;;2.60;1.23;;;18.50;96.70;;;;;;5035816;28;20239;-42
2022/05/30 11:56:13;;;;;;;2.40;1.20;;;18.60;96.70;;;;;;5054644;28;20525;-42
2022/05/30 11:58:53;;;;;;;3.10;1.27;;;18.60;96.70;;;;;;5046865;28;20247;-34
2022/05/30 12:01:25;;;;;;;5.70;1.60;;;18.70;96.80;;;;;;5045190;28;20192;-34
2022/05/30 12:04:17;;;;;;;2.72;1.30;;;18.70;96.60;;;;;;5067437;28;20320;-34
2022/05/30 12:06:58;;;;;;;4.10;1.45;;;18.80;96.40;;;;;;5038219;28;20213;-33
2022/05/30 12:09:37;;;;;;;2.95;1.30;;;18.70;96.20;;;;;;5031497;28;20258;-34
2022/05/30 12:12:10;;;;;;;2.72;1.40;;;18.70;95.90;;;;;;5049039;28;20265;-34
2022/05/30 12:14:54;;;;;;;1.95;1.25;;;18.70;96.30;;;;;;5062385;28;20345;-34
2022/05/30 12:17:30;;;;;;;3.28;1.50;;;18.70;96.20;;;;;;5058781;28;20208;-34
2022/05/30 12:23:52;;;;;;;2.33;1.40;;;18.80;96.40;;;;;;5050312;28;20203;-34
2022/05/30 12:26:46;;;;;;;2.95;1.48;;;18.80;96.40;;;;;;5047513;28;20217;-34
2022/05/30 12:29:38;;;;;;;3.00;1.40;;;18.90;96.50;;;;;;5046618;28;20200;-34
2022/05/30 12:32:24;;;;;;;3.97;1.90;;;18.90;96.40;;;;;;5050380;28;20207;-34
2022/05/30 12:34:57;;;;;;;4.35;2.05;;;19.00;96.50;;;;;;5054110;28;20215;-34
2022/05/30 12:37:45;;;;;;;2.33;1.20;;;19.00;96.50;;;;;;5050847;28;20204;-34
2022/05/30 12:40:25;;;;;;;2.83;1.02;;;19.10;96.60;;;;;;5044342;28;20225;-34
2022/05/30 12:43:07;;;;;;;2.58;1.33;;;19.20;96.60;;;;;;5045158;28;20193;-34
2022/05/30 12:45:57;;;;;;;5.13;1.60;;;19.30;96.40;;;;;;5058844;28;20203;-34
2022/05/30 12:48:44;;;;;;;2.90;1.48;;;19.30;96.10;;;;;;5062354;28;20211;-34
2022/05/30 12:51:22;;;;;;;4.22;1.35;;;19.40;96.50;;;;;;5055535;28;20207;-33
2022/05/30 12:53:59;;;;;;;4.75;1.75;;;19.40;96.50;;;;;;5053026;28;20760;-33
2022/05/30 12:56:38;;;;;;;9.35;2.30;;;19.50;96.50;;;;;;5052879;28;20307;-34
2022/05/30 12:59:06;;;;;;;5.97;2.00;;;19.50;96.20;;;;;;5048397;28;20253;-34
2022/05/30 13:01:44;;;;;;;2.65;1.42;;;19.50;96.30;;;;;;5048084;28;20310;-34
2022/05/30 13:04:26;;;;;;;2.92;1.60;;;19.50;96.00;;;;;;5054937;28;20239;-34
2022/05/30 13:07:01;;;;;;;4.63;1.73;;;19.50;95.90;;;;;;5060711;28;20635;-34
2022/05/30 13:09:33;;;;;;;3.22;1.65;;;19.50;96.10;;;;;;5060090;28;20604;-38
2022/05/30 13:12:10;;;;;;;4.60;1.73;;;19.50;95.90;;;;;;5066050;28;20642;-36
2022/05/30 13:14:42;;;;;;;5.30;1.42;;;19.50;95.90;;;;;;5040748;28;20655;-42
2022/05/30 13:17:18;;;;;;;3.28;1.77;;;19.50;95.90;;;;;;5037806;28;20225;-45
2022/05/30 13:19:53;;;;;;;3.08;1.30;;;19.50;95.60;;;;;;5033242;28;20212;-43
2022/05/30 13:22:36;;;;;;;3.92;1.65;;;19.50;95.70;;;;;;5047660;28;20357;-43
2022/05/30 13:25:06;;;;;;;3.38;1.73;;;19.50;95.80;;;;;;5038270;28;20220;-34
2022/05/30 13:27:36;;;;;;;4.20;1.58;;;19.60;95.80;;;;;;5041036;28;20310;-33
2022/05/30 13:30:06;;;;;;;4.20;1.83;;;19.60;95.50;;;;;;5047167;28;20756;-34
2022/05/30 13:32:34;;;;;;;4.32;1.55;;;19.50;95.40;;;;;;5039799;28;20655;-34
2022/05/30 13:35:07;;;;;;;2.90;1.55;;;19.50;95.50;;;;;;5040466;28;20212;-33
2022/05/30 13:37:37;;;;;;;6.47;2.55;;;19.60;95.50;;;;;;5037797;28;20287;-33
2022/05/30 13:40:10;;;;;;;12.18;3.17;;;19.60;95.60;;;;;;5041270;28;20216;-34